Time;durP1;ratioP1;P1;durP2;ratioP2;P2;SDS_P1;SDS_P2;PMS_P1;PMS_P2;Temp;Humidity;BMP_temperature;BMP_pressure;BME280_temperature;BME280_humidity;BME280_pressure;Samples;Min_cycle;Max_cycle;Signal;HPM_P1;HPM_P2
2023/11/15 00:01:53;;;;;;;12.25;3.45;;;;;;;9.02;100.00;100525.31;5114434;28;20055;-57
2023/11/15 00:04:21;;;;;;;12.63;3.58;;;;;;;9.02;100.00;100517.47;5096049;28;20048;-57
2023/11/15 00:06:50;;;;;;;14.52;3.80;;;;;;;9.06;100.00;100527.66;5114057;28;20494;-57
2023/11/15 00:09:18;;;;;;;15.25;3.33;;;;;;;9.08;100.00;100532.78;5113485;28;20081;-57
2023/11/15 00:11:51;;;;;;;14.85;3.28;;;;;;;9.08;100.00;100545.91;5113339;28;20044;-57
2023/11/15 00:14:20;;;;;;;17.00;3.90;;;;;;;9.07;100.00;100554.75;5113739;28;20126;-57
2023/11/15 00:16:50;;;;;;;13.27;3.35;;;;;;;9.07;100.00;100555.56;5114020;28;20506;-57
2023/11/15 00:19:21;;;;;;;13.75;3.65;;;;;;;9.07;100.00;100555.56;5113452;28;20096;-57
2023/11/15 00:21:49;;;;;;;11.93;3.60;;;;;;;9.08;100.00;100557.25;5113300;28;20047;-47
2023/11/15 00:24:18;;;;;;;14.05;3.53;;;;;;;9.07;100.00;100554.75;5113070;28;20040;-45
2023/11/15 00:26:46;;;;;;;12.63;3.67;;;;;;;9.07;100.00;100573.09;5094592;28;20578;-47
2023/11/15 00:29:15;;;;;;;11.63;3.45;;;;;;;9.11;100.00;100566.72;5113039;28;20046;-48
2023/11/15 00:31:44;;;;;;;11.20;3.22;;;;;;;9.10;100.00;100570.28;5112841;28;20036;-47
2023/11/15 00:34:12;;;;;;;11.48;3.67;;;;;;;9.10;100.00;100570.28;5112845;28;20036;-46
2023/11/15 00:36:44;;;;;;;12.60;3.63;;;;;;;9.10;100.00;100565.88;5112982;28;20100;-47
2023/11/15 00:39:12;;;;;;;14.27;3.42;;;;;;;9.12;100.00;100560.50;5112484;28;20131;-46
2023/11/15 00:41:41;;;;;;;13.57;3.58;;;;;;;9.10;100.00;100567.66;5112922;28;20097;-48
2023/11/15 00:44:09;;;;;;;14.80;3.60;;;;;;;9.11;100.00;100569.34;5112902;28;20422;-46
2023/11/15 00:46:37;;;;;;;15.05;2.90;;;;;;;9.11;100.00;100579.84;5112577;28;20397;-47
2023/11/15 00:49:08;;;;;;;12.25;3.22;;;;;;;9.12;100.00;100592.00;5112396;28;20039;-48
2023/11/15 00:51:36;;;;;;;11.93;3.13;;;;;;;9.08;100.00;100580.88;5112798;28;20071;-48
2023/11/15 00:54:06;;;;;;;14.18;3.00;;;;;;;9.10;100.00;100586.03;5112714;28;20055;-50
2023/11/15 00:56:34;;;;;;;12.60;3.28;;;;;;;9.09;100.00;100590.44;5112321;28;20575;-47
2023/11/15 00:59:02;;;;;;;12.43;3.33;;;;;;;9.11;100.00;100598.19;5110485;28;20146;-46
2023/11/15 01:01:31;;;;;;;16.63;3.65;;;;;;;9.12;100.00;100597.25;5109038;28;20042;-47
2023/11/15 01:03:59;;;;;;;13.80;3.97;;;;;;;9.15;100.00;100612.81;5112032;28;20048;-46
2023/11/15 01:06:29;;;;;;;9.88;3.28;;;;;;;9.16;100.00;100601.34;5112677;28;20047;-48
2023/11/15 01:08:57;;;;;;;12.55;4.10;;;;;;;9.22;100.00;100605.41;5112234;28;20047;-46
2023/11/15 01:11:26;;;;;;;15.25;4.60;;;;;;;9.24;100.00;100619.25;5112580;28;20483;-46
2023/11/15 01:13:55;;;;;;;15.00;4.78;;;;;;;9.21;100.00;100636.03;5112432;28;20087;-47
2023/11/15 01:16:24;;;;;;;14.05;4.40;;;;;;;9.20;100.00;100621.22;5112557;28;20478;-57
2023/11/15 01:18:53;;;;;;;15.35;5.47;;;;;;;9.16;100.00;100632.84;5110830;28;20490;-57
2023/11/15 01:21:21;;;;;;;17.70;4.57;;;;;;;9.18;100.00;100638.03;5111252;28;20509;-57
2023/11/15 01:23:51;;;;;;;16.58;5.97;;;;;;;9.22;100.00;100642.97;5112459;28;20140;-57
2023/11/15 01:26:20;;;;;;;19.33;4.97;;;;;;;9.22;100.00;100635.09;5112460;28;20047;-57
2023/11/15 01:28:49;;;;;;;15.57;4.53;;;;;;;9.23;100.00;100636.78;5112291;28;20058;-57
2023/11/15 01:31:17;;;;;;;9.70;2.97;;;;;;;9.14;100.00;100638.19;5108853;28;20051;-47
2023/11/15 01:33:45;;;;;;;11.15;2.20;;;;;;;9.10;100.00;100630.63;5110204;28;20051;-57
2023/11/15 01:36:14;;;;;;;9.57;2.30;;;;;;;9.07;100.00;100659.69;5112322;28;20050;-47
2023/11/15 01:38:42;;;;;;;12.13;2.65;;;;;;;9.09;100.00;100660.41;5112213;28;20047;-57
2023/11/15 01:41:12;;;;;;;8.73;2.20;;;;;;;9.08;100.00;100653.47;5112326;28;20049;-48
2023/11/15 01:43:40;;;;;;;11.07;2.33;;;;;;;9.09;100.00;100647.28;5093920;28;20059;-47
2023/11/15 01:46:09;;;;;;;7.28;1.80;;;;;;;9.04;100.00;100654.59;5112037;28;20031;-48
2023/11/15 01:48:38;;;;;;;6.57;1.48;;;;;;;9.01;100.00;100675.78;5092397;28;20051;-46
2023/11/15 01:51:07;;;;;;;5.40;1.48;;;;;;;8.99;100.00;100694.22;5111829;28;20422;-48
2023/11/15 01:53:36;;;;;;;5.88;1.35;;;;;;;8.98;100.00;100686.47;5115275;28;20043;-49
2023/11/15 01:56:05;;;;;;;4.35;1.33;;;;;;;8.98;100.00;100682.06;5115826;28;20047;-48
2023/11/15 01:58:35;;;;;;;4.75;1.30;;;;;;;8.95;100.00;100704.06;5112708;28;20066;-48
2023/11/15 02:01:05;;;;;;;6.90;1.42;;;;;;;8.88;100.00;100707.16;5113688;28;20039;-47
2023/11/15 02:03:33;;;;;;;4.13;1.10;;;;;;;8.91;100.00;100713.06;5115745;28;20517;-48
2023/11/15 02:06:01;;;;;;;5.68;1.58;;;;;;;8.88;100.00;100708.00;5115687;28;20153;-46
2023/11/15 02:08:30;;;;;;;4.15;1.02;;;;;;;8.91;100.00;100706.97;5115513;28;20044;-48
2023/11/15 02:10:58;;;;;;;3.92;1.30;;;;;;;8.88;100.00;100701.91;5115622;28;20047;-50
2023/11/15 02:13:28;;;;;;;3.58;0.90;;;;;;;8.84;100.00;100692.56;5115848;28;20047;-49
2023/11/15 02:15:56;;;;;;;2.83;0.80;;;;;;;8.83;100.00;100704.81;5115594;28;20051;-46
2023/11/15 02:18:25;;;;;;;6.53;1.10;;;;;;;8.86;100.00;100698.53;5115391;28;20047;-45
2023/11/15 02:20:54;;;;;;;6.68;0.98;;;;;;;8.90;100.00;100713.16;5115424;28;20138;-47
2023/11/15 02:23:23;;;;;;;10.38;1.20;;;;;;;8.89;100.00;100714.06;5115337;28;20122;-57
2023/11/15 02:25:53;;;;;;;4.10;1.00;;;;;;;8.85;100.00;100718.69;5097527;28;20058;-58
2023/11/15 02:28:21;;;;;;;3.42;1.02;;;;;;;8.82;100.00;100711.00;5115311;28;20105;-57
2023/11/15 02:30:50;;;;;;;2.85;1.10;;;;;;;8.82;100.00;100718.00;5115873;28;20054;-57
2023/11/15 02:33:18;;;;;;;4.07;0.98;;;;;;;8.74;100.00;100719.31;5115232;28;20054;-57
2023/11/15 02:35:47;;;;;;;4.10;1.17;;;;;;;8.73;100.00;100719.41;5111694;28;20129;-48
2023/11/15 02:38:16;;;;;;;4.40;1.10;;;;;;;8.74;100.00;100715.84;5115369;28;20544;-48
2023/11/15 02:40:45;;;;;;;4.00;1.10;;;;;;;8.77;100.00;100726.16;5115103;28;20044;-49
2023/11/15 02:43:15;;;;;;;3.03;1.00;;;;;;;8.79;100.00;100725.13;5115017;28;20055;-47
2023/11/15 02:45:43;;;;;;;5.15;1.52;;;;;;;8.81;100.00;100727.66;5115010;28;20104;-47
2023/11/15 02:48:11;;;;;;;2.55;1.15;;;;;;;8.83;100.00;100730.19;5114810;28;20499;-46
2023/11/15 02:50:40;;;;;;;4.18;1.27;;;;;;;8.83;100.00;100728.41;5110892;28;20047;-45
2023/11/15 02:53:11;;;;;;;5.57;1.88;;;;;;;8.86;100.00;100719.50;5112404;28;20051;-46
2023/11/15 02:55:39;;;;;;;11.23;2.72;;;;;;;8.86;100.00;100724.75;5114625;28;20123;-45
2023/11/15 02:58:07;;;;;;;6.95;2.38;;;;;;;8.87;100.00;100722.03;5114788;28;20047;-47
2023/11/15 03:00:37;;;;;;;7.72;2.40;;;;;;;8.85;100.00;100739.66;5114542;28;20036;-47
2023/11/15 03:03:06;;;;;;;7.60;2.05;;;;;;;8.86;100.00;100736.09;5096465;28;20104;-46
2023/11/15 03:05:35;;;;;;;7.72;2.22;;;;;;;8.86;100.00;100740.50;5114701;28;20437;-55
2023/11/15 03:08:04;;;;;;;8.40;2.10;;;;;;;8.87;100.00;100736.94;5115003;28;20119;-57
2023/11/15 03:10:33;;;;;;;5.60;2.28;;;;;;;8.90;100.00;100742.00;5096881;28;20052;-47
2023/11/15 03:13:03;;;;;;;9.88;2.10;;;;;;;8.91;100.00;100741.06;5114444;28;20059;-57
2023/11/15 03:15:32;;;;;;;7.07;2.78;;;;;;;8.90;100.00;100747.25;5112741;28;20566;-57
2023/11/15 03:18:01;;;;;;;10.02;2.00;;;;;;;8.93;100.00;100755.78;5094599;28;20070;-45
2023/11/15 03:20:30;;;;;;;8.32;2.30;;;;;;;8.94;100.00;100754.84;5096299;28;20043;-49
2023/11/15 03:22:59;;;;;;;8.85;2.60;;;;;;;8.95;100.00;100750.44;5113894;28;20101;-47
2023/11/15 03:25:27;;;;;;;7.18;2.15;;;;;;;8.97;100.00;100756.44;5111170;28;20060;-48
2023/11/15 03:27:55;;;;;;;6.57;2.25;;;;;;;8.98;100.00;100757.28;5110589;28;20131;-47
2023/11/15 03:30:23;;;;;;;12.02;2.80;;;;;;;9.03;100.00;100756.06;5114027;28;20040;-46
2023/11/15 03:32:52;;;;;;;13.20;2.90;;;;;;;9.04;100.00;100759.53;5114121;28;20051;-57
2023/11/15 03:35:22;;;;;;;12.73;3.03;;;;;;;9.03;100.00;100768.34;5113610;28;20100;-57
2023/11/15 03:37:53;;;;;;;13.32;3.38;;;;;;;9.03;100.00;100777.06;5114206;28;20065;-57
2023/11/15 03:40:24;;;;;;;14.80;3.97;;;;;;;9.10;100.00;100770.50;5113609;28;20863;-57
2023/11/15 03:42:52;;;;;;;21.67;4.10;;;;;;;9.11;100.00;100768.75;5114863;28;20058;-57
2023/11/15 03:45:20;;;;;;;17.48;4.32;;;;;;;9.11;100.00;100774.81;5114695;28;20046;-57
2023/11/15 03:47:48;;;;;;;18.33;3.67;;;;;;;9.13;100.00;100777.34;5114501;28;20040;-57
2023/11/15 03:50:18;;;;;;;16.83;3.92;;;;;;;9.16;100.00;100768.44;5113202;28;20565;-58
2023/11/15 03:52:47;;;;;;;11.88;3.72;;;;;;;9.16;100.00;100774.53;5114175;28;20097;-57
2023/11/15 03:55:16;;;;;;;14.27;3.20;;;;;;;9.17;100.00;100784.09;5114432;28;20051;-57
2023/11/15 03:57:46;;;;;;;18.70;3.67;;;;;;;9.15;100.00;100785.97;5114664;28;20051;-57
2023/11/15 04:00:14;;;;;;;15.43;3.47;;;;;;;9.17;100.00;100786.72;5114267;28;20109;-57
2023/11/15 04:02:42;;;;;;;17.63;3.55;;;;;;;9.17;100.00;100791.97;5114428;28;20425;-57
2023/11/15 04:05:10;;;;;;;15.23;3.10;;;;;;;9.14;100.00;100787.75;5114128;28;20084;-57
2023/11/15 04:07:39;;;;;;;15.20;3.25;;;;;;;9.15;100.00;100791.22;5113489;28;20086;-57
2023/11/15 04:10:10;;;;;;;21.00;4.13;;;;;;;9.16;100.00;100797.31;5112862;28;20375;-57
2023/11/15 04:12:38;;;;;;;15.85;3.65;;;;;;;9.23;100.00;100802.09;5112681;28;20079;-57
2023/11/15 04:15:08;;;;;;;16.23;3.53;;;;;;;9.22;100.00;100795.16;5113652;28;20047;-57
2023/11/15 04:17:37;;;;;;;17.77;4.05;;;;;;;9.19;100.00;100800.59;5113275;28;20043;-58
2023/11/15 04:20:08;;;;;;;16.95;3.70;;;;;;;9.19;100.00;100799.75;5112674;28;20047;-57
2023/11/15 04:22:36;;;;;;;19.58;3.63;;;;;;;9.17;100.00;100806.88;5113604;28;20062;-57
2023/11/15 04:25:05;;;;;;;12.98;3.60;;;;;;;9.16;100.00;100815.69;5113956;28;20090;-57
2023/11/15 04:27:35;;;;;;;18.33;3.45;;;;;;;9.16;100.00;100811.25;5113763;28;20522;-57
2023/11/15 04:30:03;;;;;;;14.70;3.22;;;;;;;9.19;100.00;100818.13;5095714;28;20113;-57
2023/11/15 04:32:31;;;;;;;26.73;3.95;;;;;;;9.18;100.00;100822.53;5113306;28;20039;-57
2023/11/15 04:35:00;;;;;;;20.83;3.83;;;;;;;9.18;100.00;100821.69;5112704;28;20104;-57
2023/11/15 04:37:29;;;;;;;15.57;3.30;;;;;;;9.16;100.00;100829.63;5112866;28;20047;-57
2023/11/15 04:39:57;;;;;;;17.67;2.90;;;;;;;9.14;100.00;100828.88;5112975;28;20054;-57
2023/11/15 04:42:25;;;;;;;18.40;3.05;;;;;;;9.16;100.00;100836.66;5112215;28;20052;-57
2023/11/15 04:44:55;;;;;;;14.75;3.05;;;;;;;9.18;100.00;100833.03;5113613;28;20133;-57
2023/11/15 04:47:23;;;;;;;14.27;3.05;;;;;;;9.16;100.00;100842.75;5113669;28;20079;-58
2023/11/15 04:49:51;;;;;;;15.30;2.97;;;;;;;9.15;100.00;100838.47;5113573;28;20088;-57
2023/11/15 04:52:19;;;;;;;14.55;2.95;;;;;;;9.14;100.00;100842.00;5113523;28;20043;-57
2023/11/15 04:54:47;;;;;;;16.25;2.55;;;;;;;9.13;100.00;100840.31;5113563;28;20051;-57
2023/11/15 04:57:16;;;;;;;16.05;2.22;;;;;;;9.13;100.00;100854.28;5112832;28;20052;-57
2023/11/15 04:59:44;;;;;;;17.65;3.30;;;;;;;9.16;100.00;100847.16;5112049;28;20055;-57
2023/11/15 05:02:13;;;;;;;13.10;2.70;;;;;;;9.16;100.00;100852.41;5095187;28;20128;-58
2023/11/15 05:04:41;;;;;;;14.65;2.88;;;;;;;9.15;100.00;100856.81;5113479;28;20043;-57
2023/11/15 05:07:10;;;;;;;14.90;2.97;;;;;;;9.16;100.00;100849.78;5113185;28;20618;-57
2023/11/15 05:09:39;;;;;;;16.15;3.45;;;;;;;9.16;100.00;100847.16;5113131;28;20143;-57
2023/11/15 05:12:07;;;;;;;16.42;2.75;;;;;;;9.21;100.00;100848.56;5113150;28;20047;-58
2023/11/15 05:14:36;;;;;;;18.48;2.50;;;;;;;9.21;100.00;100851.19;5112556;28;20039;-57
2023/11/15 05:17:05;;;;;;;14.27;2.70;;;;;;;9.22;100.00;100845.03;5111979;28;20397;-57
2023/11/15 05:19:36;;;;;;;15.50;3.55;;;;;;;9.23;100.00;100859.84;5112418;28;20495;-57
2023/11/15 05:22:05;;;;;;;15.63;2.95;;;;;;;9.22;100.00;100862.56;5112287;28;20046;-57
2023/11/15 05:24:33;;;;;;;12.85;2.80;;;;;;;9.21;100.00;100856.44;5111816;28;20051;-57
2023/11/15 05:27:02;;;;;;;20.42;3.33;;;;;;;9.20;100.00;100854.75;5112564;28;20127;-57
2023/11/15 05:29:30;;;;;;;18.13;2.80;;;;;;;9.22;100.00;100860.78;5112601;28;20075;-57
2023/11/15 05:31:59;;;;;;;21.20;3.40;;;;;;;9.25;100.00;100863.19;5111674;28;20046;-57
2023/11/15 05:37:25;;;;;;;18.13;2.92;;;;;;;9.23;100.00;100877.34;5112628;28;20040;-58
2023/11/15 05:39:53;;;;;;;18.67;3.53;;;;;;;9.28;100.00;100872.69;5111746;28;20131;-57
2023/11/15 05:42:21;;;;;;;20.75;3.88;;;;;;;9.29;100.00;100872.59;5110517;28;20043;-57
2023/11/15 05:44:49;;;;;;;19.30;3.05;;;;;;;9.26;100.00;100878.03;5093551;28;20498;-58
2023/11/15 05:47:17;;;;;;;15.00;3.53;;;;;;;9.24;100.00;100872.03;5111302;28;20123;-57
2023/11/15 05:49:46;;;;;;;16.17;3.63;;;;;;;9.24;100.00;100873.78;5110206;28;20125;-57
2023/11/15 05:52:15;;;;;;;17.00;3.58;;;;;;;9.27;100.00;100878.84;5111675;28;20046;-57
2023/11/15 05:54:46;;;;;;;23.10;2.92;;;;;;;9.29;100.00;100879.63;5109946;28;20050;-57
2023/11/15 05:57:15;;;;;;;18.00;3.63;;;;;;;9.30;100.00;100882.16;5110667;28;20187;-46
2023/11/15 05:59:43;;;;;;;17.13;4.70;;;;;;;9.27;100.00;100877.09;5111558;28;20124;-49
2023/11/15 06:02:12;;;;;;;16.90;3.90;;;;;;;9.28;100.00;100876.16;5111524;28;20048;-49
2023/11/15 06:04:40;;;;;;;13.43;3.42;;;;;;;9.27;100.00;100878.84;5111535;28;20047;-47
2023/11/15 06:07:10;;;;;;;16.58;3.28;;;;;;;9.32;100.00;100879.44;5111774;28;20375;-46
2023/11/15 06:09:38;;;;;;;21.95;3.63;;;;;;;9.32;100.00;100889.94;5111544;28;20043;-45
2023/11/15 06:12:09;;;;;;;14.27;3.35;;;;;;;9.26;100.00;100891.16;5111414;28;20044;-47
2023/11/15 06:14:37;;;;;;;13.77;3.28;;;;;;;9.32;100.00;100889.09;5093530;28;20058;-48
2023/11/15 06:17:07;;;;;;;15.60;2.67;;;;;;;9.32;100.00;100892.56;5111352;28;20414;-47
2023/11/15 06:19:36;;;;;;;17.50;3.20;;;;;;;9.32;100.00;100900.44;5111136;28;20506;-46
2023/11/15 06:22:04;;;;;;;17.60;2.97;;;;;;;9.34;100.00;100910.84;5111090;28;20044;-46
2023/11/15 06:24:33;;;;;;;20.38;3.40;;;;;;;9.34;100.00;100902.97;5110927;28;20067;-46
2023/11/15 06:27:01;;;;;;;17.38;3.42;;;;;;;9.33;100.00;100910.00;5111489;28;20532;-46
2023/11/15 06:29:30;;;;;;;12.75;2.80;;;;;;;9.32;100.00;100910.09;5111532;28;20056;-52
2023/11/15 06:32:01;;;;;;;20.42;3.33;;;;;;;9.35;100.00;100909.91;5111687;28;20104;-49
2023/11/15 06:34:30;;;;;;;15.85;3.53;;;;;;;9.33;100.00;100920.50;5093261;28;20059;-48
2023/11/15 06:36:59;;;;;;;23.33;3.88;;;;;;;9.34;100.00;100914.31;5114328;28;20051;-47
2023/11/15 06:39:27;;;;;;;17.98;3.40;;;;;;;9.36;100.00;100903.72;5111841;28;20051;-47
2023/11/15 06:41:55;;;;;;;13.57;3.13;;;;;;;9.36;100.00;100912.44;5093069;28;20047;-48
2023/11/15 06:44:26;;;;;;;20.60;4.10;;;;;;;9.34;100.00;100911.69;5114917;28;20035;-48
2023/11/15 06:46:55;;;;;;;16.73;3.45;;;;;;;9.32;100.00;100910.09;5114990;28;20047;-50
2023/11/15 06:49:24;;;;;;;15.70;3.42;;;;;;;9.26;100.00;100919.19;5115032;28;20040;-46
2023/11/15 06:51:52;;;;;;;18.50;3.58;;;;;;;9.25;100.00;100930.59;5114644;28;20088;-46
2023/11/15 06:54:20;;;;;;;15.23;3.00;;;;;;;9.24;100.00;100940.25;5114753;28;20058;-45
2023/11/15 06:56:48;;;;;;;20.67;4.47;;;;;;;9.24;100.00;100932.41;5114808;28;20047;-46
2023/11/15 06:59:17;;;;;;;19.58;3.42;;;;;;;9.28;100.00;100941.78;5114400;28;20070;-50
2023/11/15 07:01:49;;;;;;;16.25;3.00;;;;;;;9.29;100.00;100945.25;5114599;28;20039;-47
2023/11/15 07:04:22;;;;;;;15.30;3.47;;;;;;;9.27;100.00;100942.72;5114634;28;20062;-46
2023/11/15 07:06:50;;;;;;;14.07;3.60;;;;;;;9.27;100.00;100952.34;5114423;28;20391;-49
2023/11/15 07:09:19;;;;;;;13.85;3.60;;;;;;;9.28;100.00;100949.66;5110563;28;20044;-47
2023/11/15 07:11:48;;;;;;;21.23;4.93;;;;;;;9.26;100.00;100956.75;5112739;28;20447;-47
2023/11/15 07:14:16;;;;;;;20.67;4.50;;;;;;;9.26;100.00;100954.13;5114558;28;20057;-49
2023/11/15 07:16:46;;;;;;;18.55;3.50;;;;;;;9.26;100.00;100964.63;5114362;28;20538;-47
2023/11/15 07:19:14;;;;;;;21.48;3.40;;;;;;;9.28;100.00;100972.41;5114438;28;20046;-57
2023/11/15 07:21:44;;;;;;;18.35;5.15;;;;;;;9.24;100.00;100963.88;5114992;28;20070;-57
2023/11/15 07:24:12;;;;;;;17.10;4.72;;;;;;;9.28;100.00;100973.28;5114925;28;20052;-56
2023/11/15 07:26:41;;;;;;;17.00;4.32;;;;;;;9.32;100.00;100989.66;5114112;28;20040;-56
2023/11/15 07:29:10;;;;;;;17.40;4.57;;;;;;;9.35;100.00;100989.47;5112693;28;20409;-57
2023/11/15 07:31:40;;;;;;;21.40;3.75;;;;;;;9.33;100.00;100991.38;5111399;28;20050;-57
2023/11/15 07:34:10;;;;;;;20.05;4.15;;;;;;;9.32;100.00;100999.34;5114041;28;20071;-56
2023/11/15 07:36:38;;;;;;;13.95;4.20;;;;;;;9.30;100.00;101005.50;5112917;28;20055;-56
2023/11/15 07:39:13;;;;;;;21.88;4.20;;;;;;;9.30;100.00;101013.38;5112364;28;20047;-56
2023/11/15 07:41:44;;;;;;;16.58;3.90;;;;;;;9.34;100.00;101016.69;5095613;28;20044;-56
2023/11/15 07:44:15;;;;;;;16.17;3.55;;;;;;;9.26;100.00;101004.00;5113864;28;20048;-56
2023/11/15 07:46:49;;;;;;;11.93;2.50;;;;;;;9.19;100.00;101001.78;5095581;28;20044;-56
2023/11/15 07:49:20;;;;;;;14.57;2.83;;;;;;;9.19;100.00;101000.03;5113251;28;20040;-56
2023/11/15 07:51:48;;;;;;;11.43;2.67;;;;;;;9.16;100.00;101005.44;5113604;28;20576;-56
2023/11/15 07:54:19;;;;;;;7.40;2.10;;;;;;;9.13;100.00;101001.22;5114273;28;20044;-56
2023/11/15 07:56:47;;;;;;;14.70;2.00;;;;;;;9.13;100.00;101003.84;5114807;28;20047;-58
2023/11/15 07:59:16;;;;;;;10.25;2.20;;;;;;;9.14;100.00;101017.81;5114283;28;20047;-58
2023/11/15 08:01:45;;;;;;;11.85;2.85;;;;;;;9.14;100.00;101016.03;5114267;28;20584;-57
2023/11/15 08:04:15;;;;;;;13.65;2.92;;;;;;;9.15;100.00;101014.25;5113313;28;20487;-57
2023/11/15 08:06:47;;;;;;;14.50;4.18;;;;;;;9.16;100.00;101018.56;5113410;28;20066;-57
2023/11/15 08:09:24;;;;;;;19.77;4.65;;;;;;;9.20;100.00;101017.44;5112902;28;20047;-57
2023/11/15 08:11:55;;;;;;;18.48;5.30;;;;;;;9.26;100.00;101026.78;5113193;28;20058;-57
2023/11/15 08:14:25;;;;;;;18.83;4.53;;;;;;;9.33;100.00;101033.38;5094977;28;20417;-57
2023/11/15 08:16:56;;;;;;;22.98;4.50;;;;;;;9.41;100.00;101033.78;5113474;28;20524;-57
2023/11/15 08:19:24;;;;;;;17.58;3.90;;;;;;;9.42;100.00;101043.34;5113054;28;20051;-57
2023/11/15 08:21:53;;;;;;;19.38;4.43;;;;;;;9.46;100.00;101044.00;5113953;28;20051;-57
2023/11/15 08:24:22;;;;;;;18.42;4.22;;;;;;;9.48;100.00;101047.41;5114045;28;20036;-57
2023/11/15 08:26:51;;;;;;;21.35;4.55;;;;;;;9.54;100.00;101041.78;5113932;28;20075;-58
2023/11/15 08:29:23;;;;;;;19.08;4.18;;;;;;;9.60;100.00;101051.09;5113950;28;20122;-57
2023/11/15 08:31:51;;;;;;;18.65;4.13;;;;;;;9.62;100.00;101051.84;5113548;28;20589;-58
2023/11/15 08:34:20;;;;;;;18.77;4.00;;;;;;;9.68;100.00;101054.13;5112578;28;20143;-57
2023/11/15 08:36:51;;;;;;;17.42;4.35;;;;;;;9.73;100.00;101059.09;5113643;28;20054;-58
2023/11/15 08:39:22;;;;;;;20.58;3.83;;;;;;;9.75;100.00;101062.50;5112287;28;20498;-58
2023/11/15 08:41:53;;;;;;;20.65;3.97;;;;;;;9.76;100.00;101064.16;5094929;28;20060;-57
2023/11/15 08:44:23;;;;;;;20.67;4.25;;;;;;;9.81;100.00;101073.47;5112793;28;20456;-57
2023/11/15 08:46:51;;;;;;;18.08;3.50;;;;;;;9.85;100.00;101073.31;5112699;28;20058;-57
2023/11/15 08:49:20;;;;;;;20.05;4.03;;;;;;;9.87;100.00;101071.44;5112353;28;20043;-57
2023/11/15 08:51:50;;;;;;;17.45;3.50;;;;;;;9.91;100.00;101072.94;5113382;28;20100;-57
2023/11/15 08:54:19;;;;;;;15.57;3.90;;;;;;;9.94;100.00;101076.25;5113239;28;20149;-57
2023/11/15 08:56:47;;;;;;;19.02;3.97;;;;;;;9.97;100.00;101070.78;5112827;28;20058;-57
2023/11/15 08:59:15;;;;;;;18.60;3.70;;;;;;;10.04;100.00;101087.06;5111892;28;20090;-57
2023/11/15 09:01:47;;;;;;;19.17;3.72;;;;;;;10.03;100.00;101080.09;5112882;28;20048;-57
2023/11/15 09:04:16;;;;;;;16.90;4.00;;;;;;;10.08;100.00;101085.09;5113141;28;20051;-57
2023/11/15 09:06:46;;;;;;;16.42;3.22;;;;;;;10.10;100.00;101086.69;5113633;28;20047;-57
2023/11/15 09:09:15;;;;;;;16.58;3.35;;;;;;;10.17;100.00;101081.94;5113445;28;20502;-57
2023/11/15 09:11:44;;;;;;;15.70;3.00;;;;;;;10.27;100.00;101076.97;5112833;28;20050;-58
2023/11/15 09:14:14;;;;;;;14.85;3.25;;;;;;;10.34;100.00;101090.59;5113118;28;20055;-57
2023/11/15 09:16:44;;;;;;;15.95;2.50;;;;;;;10.43;100.00;101096.16;5112649;28;20418;-57
2023/11/15 09:19:17;;;;;;;13.65;3.58;;;;;;;10.53;100.00;101093.81;5112918;28;20390;-57
2023/11/15 09:21:45;;;;;;;13.18;2.88;;;;;;;10.60;100.00;101097.75;5113340;28;20076;-57
2023/11/15 09:24:21;;;;;;;16.73;2.80;;;;;;;10.53;100.00;101096.44;5113340;28;20123;-57
2023/11/15 09:26:51;;;;;;;12.52;2.53;;;;;;;10.59;100.00;101106.59;5113275;28;20460;-57
2023/11/15 09:29:20;;;;;;;11.18;2.53;;;;;;;10.62;100.00;101103.78;5112445;28;20526;-57
2023/11/15 09:31:49;;;;;;;14.85;2.85;;;;;;;10.62;100.00;101116.94;5112666;28;20605;-58
2023/11/15 09:34:20;;;;;;;14.30;2.95;;;;;;;10.60;100.00;101108.28;5112642;28;20486;-58
2023/11/15 09:36:52;;;;;;;11.20;2.30;;;;;;;10.61;100.00;101106.50;5113117;28;20040;-57
2023/11/15 09:39:20;;;;;;;15.77;3.38;;;;;;;10.60;100.00;101110.91;5113193;28;20040;-58
2023/11/15 09:41:53;;;;;;;14.30;3.00;;;;;;;10.56;100.00;101112.03;5112504;28;20055;-57
2023/11/15 09:44:23;;;;;;;15.30;3.20;;;;;;;10.59;100.00;101125.00;5113220;28;20044;-57
2023/11/15 09:46:57;;;;;;;14.10;3.08;;;;;;;10.62;100.00;101114.28;5113410;28;20503;-57
2023/11/15 09:49:29;;;;;;;16.05;3.53;;;;;;;10.67;100.00;101116.63;5113181;28;20040;-58
2023/11/15 09:51:59;;;;;;;14.18;3.20;;;;;;;10.72;100.00;101119.00;5113142;28;20043;-57
2023/11/15 09:54:27;;;;;;;11.88;3.38;;;;;;;10.68;100.00;101118.34;5112577;28;20039;-57
2023/11/15 09:56:59;;;;;;;15.43;3.70;;;;;;;10.62;100.00;101119.56;5112526;28;20040;-57
2023/11/15 09:59:30;;;;;;;14.57;3.38;;;;;;;10.60;100.00;101134.56;5112954;28;20475;-58
2023/11/15 10:01:58;;;;;;;12.23;2.83;;;;;;;10.61;100.00;101138.91;5113070;28;20086;-58
2023/11/15 10:04:29;;;;;;;12.68;2.83;;;;;;;10.57;100.00;101134.75;5112957;28;20044;-58
2023/11/15 10:06:58;;;;;;;14.85;3.20;;;;;;;10.56;100.00;101135.69;5094851;28;20051;-57
2023/11/15 10:09:38;;;;;;;12.77;2.88;;;;;;;10.58;100.00;101141.72;5113127;28;20046;-57
2023/11/15 10:12:07;;;;;;;15.15;2.60;;;;;;;10.60;100.00;101145.09;5115825;28;20119;-57
2023/11/15 10:14:50;;;;;;;14.45;3.13;;;;;;;10.65;100.00;101140.41;5108469;28;20066;-57
2023/11/15 10:17:39;;;;;;;14.50;2.90;;;;;;;10.72;100.00;101134.78;5116679;28;20052;-57
2023/11/15 10:20:20;;;;;;;14.73;2.88;;;;;;;10.83;100.00;101134.97;5116607;28;20142;-57
2023/11/15 10:22:48;;;;;;;12.05;2.63;;;;;;;10.90;100.00;101136.25;5116933;28;20044;-58
2023/11/15 10:25:18;;;;;;;14.35;2.83;;;;;;;10.97;100.00;101142.00;5116145;28;20043;-57
2023/11/15 10:27:46;;;;;;;13.45;2.85;;;;;;;11.07;100.00;101147.53;5098354;28;20421;-58
2023/11/15 10:30:20;;;;;;;19.00;3.22;;;;;;;11.25;100.00;101142.91;5116547;28;20044;-57
2023/11/15 10:32:50;;;;;;;12.75;3.00;;;;;;;11.34;100.00;101137.03;5116494;28;20089;-57
2023/11/15 10:35:28;;;;;;;9.60;2.10;;;;;;;11.39;100.00;101140.22;5116480;28;20079;-58
2023/11/15 10:37:57;;;;;;;12.57;2.53;;;;;;;11.42;100.00;101140.03;5116609;28;20090;-57
2023/11/15 10:40:28;;;;;;;9.10;2.20;;;;;;;11.43;100.00;101143.53;5116421;28;20045;-58
2023/11/15 10:42:58;;;;;;;12.68;2.40;;;;;;;11.51;100.00;101149.16;5116881;28;20071;-57
2023/11/15 10:45:28;;;;;;;13.50;2.88;;;;;;;11.61;100.00;101141.50;5116011;28;20051;-58
2023/11/15 10:47:58;;;;;;;11.15;3.10;;;;;;;11.69;100.00;101144.47;5115254;28;20122;-57
2023/11/15 10:50:31;;;;;;;15.38;2.90;;;;;;;11.81;100.00;101145.47;5115574;28;20409;-58
2023/11/15 10:53:00;;;;;;;17.42;3.47;;;;;;;11.92;100.00;101140.31;5115953;28;20506;-57
2023/11/15 10:55:29;;;;;;;14.43;3.15;;;;;;;11.90;100.00;101152.78;5115638;28;20054;-57
2023/11/15 10:58:02;;;;;;;11.38;2.65;;;;;;;11.96;100.00;101141.84;5116031;28;20100;-57
2023/11/15 11:00:31;;;;;;;12.38;2.50;;;;;;;12.05;100.00;101145.66;5114668;28;20070;-57
2023/11/15 11:02:59;;;;;;;9.43;2.30;;;;;;;12.12;100.00;101143.44;5114797;28;20441;-57
2023/11/15 11:05:41;;;;;;;12.88;2.53;;;;;;;12.23;100.00;101143.59;5114513;28;20048;-57
2023/11/15 11:08:20;;;;;;;13.30;2.20;;;;;;;12.28;100.00;101144.09;5114868;28;20036;-57
2023/11/15 11:10:54;;;;;;;13.43;2.97;;;;;;;12.40;100.00;101147.72;5096602;28;20055;-57
2023/11/15 11:13:24;;;;;;;13.27;2.38;;;;;;;12.39;100.00;101140.75;5114671;28;20066;-57
2023/11/15 11:15:52;;;;;;;13.00;2.33;;;;;;;12.48;100.00;101140.13;5114411;28;20050;-57
2023/11/15 11:18:22;;;;;;;9.68;1.85;;;;;;;12.48;100.00;101139.28;5114395;28;20058;-57
2023/11/15 11:20:59;;;;;;;16.02;3.13;;;;;;;12.33;100.00;101151.72;5114391;28;20040;-57
2023/11/15 11:23:30;;;;;;;12.98;2.50;;;;;;;12.27;100.00;101150.34;5114332;28;20499;-57
2023/11/15 11:26:32;;;;;;;11.88;2.38;;;;;;;12.36;100.00;101158.59;5095786;28;20067;-57
2023/11/15 11:29:02;;;;;;;15.63;3.05;;;;;;;12.32;100.00;101156.16;5111926;28;20059;-57
2023/11/15 11:31:31;;;;;;;9.30;2.10;;;;;;;12.34;100.00;101151.63;5114231;28;20406;-57